Time;durP1;ratioP1;P1;durP2;ratioP2;P2;SDS_P1;SDS_P2;PMS_P1;PMS_P2;Temp;Humidity;BMP_temperature;BMP_pressure;BME280_temperature;BME280_humidity;BME280_pressure;Samples;Min_cycle;Max_cycle;Signal;HPM_P1;HPM_P2
2022/04/22 00:01:19;;;;;;;7.13;4.73;;;;;12.40;100264.00;;;;10497712;28;20211;-78
2022/04/22 00:06:22;;;;;;;9.57;5.60;;;;;12.20;100266.00;;;;10534799;28;20204;-77
2022/04/22 00:11:29;;;;;;;7.67;4.67;;;;;12.00;100263.00;;;;10534763;28;20196;-79
2022/04/22 00:16:32;;;;;;;6.53;4.70;;;;;11.90;100262.00;;;;10518328;28;20788;-79
2022/04/22 00:21:34;;;;;;;9.63;4.50;;;;;11.70;100258.00;;;;10518533;28;20196;-79
2022/04/22 00:26:36;;;;;;;7.40;4.50;;;;;11.60;100251.00;;;;10552261;28;20205;-78
2022/04/22 00:31:38;;;;;;;8.23;4.73;;;;;11.50;100257.00;;;;10509191;28;20193;-78
2022/04/22 00:36:40;;;;;;;7.27;4.53;;;;;11.50;100250.00;;;;10508781;28;20792;-79
2022/04/22 00:41:43;;;;;;;6.10;4.33;;;;;11.50;100246.00;;;;10508151;28;20221;-79
2022/04/22 00:46:45;;;;;;;10.13;5.20;;;;;11.50;100248.00;;;;10495062;28;20778;-78
2022/04/22 00:51:47;;;;;;;7.50;4.37;;;;;11.40;100255.00;;;;10543756;27;20187;-78
2022/04/22 00:56:50;;;;;;;7.07;4.30;;;;;11.30;100237.00;;;;10591787;27;20237;-78
2022/04/22 01:01:52;;;;;;;8.67;5.00;;;;;11.10;100240.00;;;;10565640;27;20218;-78
2022/04/22 01:12:16;;;;;;;8.83;5.60;;;;;10.90;100236.00;;;;10565186;28;20738;-79
2022/04/22 01:17:19;;;;;;;7.73;5.17;;;;;10.70;100226.00;;;;10548840;28;20206;-78
2022/04/22 01:22:21;;;;;;;9.30;5.30;;;;;10.60;100217.00;;;;10533458;28;20188;-78
2022/04/22 01:27:24;;;;;;;7.57;6.13;;;;;10.50;100215.00;;;;10513836;28;20254;-77
2022/04/22 01:32:27;;;;;;;7.07;5.50;;;;;10.40;100218.00;;;;10565271;28;20180;-78
2022/04/22 01:37:29;;;;;;;9.83;6.17;;;;;10.40;100219.00;;;;10531981;28;20193;-78
2022/04/22 01:42:31;;;;;;;10.60;5.97;;;;;10.40;100208.00;;;;10545954;28;20245;-77
2022/04/22 01:47:33;;;;;;;12.50;6.17;;;;;10.30;100202.00;;;;10548707;28;20226;-78
2022/04/22 01:52:40;;;;;;;11.07;7.00;;;;;10.20;100200.00;;;;10566488;28;20217;-78
2022/04/22 01:57:42;;;;;;;10.13;6.53;;;;;10.10;100201.00;;;;10574461;27;20179;-78
2022/04/22 02:02:44;;;;;;;10.70;7.80;;;;;10.00;100204.00;;;;10543727;28;20219;-78
2022/04/22 02:07:46;;;;;;;11.33;7.27;;;;;9.90;100197.00;;;;10540635;28;20290;-79
2022/04/22 02:12:49;;;;;;;10.47;7.73;;;;;9.80;100202.00;;;;10556386;28;20192;-78
2022/04/22 02:17:51;;;;;;;10.00;7.90;;;;;9.60;100195.00;;;;10539423;28;20198;-78
2022/04/22 02:22:53;;;;;;;10.47;7.43;;;;;9.60;100192.00;;;;10560122;27;20556;-78
2022/04/22 02:33:15;;;;;;;11.03;8.43;;;;;9.40;100179.00;;;;10598215;27;20192;-77
2022/04/22 02:38:17;;;;;;;12.57;8.13;;;;;9.30;100180.00;;;;10535659;28;20205;-78
2022/04/22 02:48:51;;;;;;;15.10;9.83;;;;;9.20;100176.00;;;;10498500;28;20212;-78
2022/04/22 02:53:54;;;;;;;13.50;9.80;;;;;9.10;100171.00;;;;10582781;27;20195;-78
2022/04/22 02:58:56;;;;;;;14.13;10.63;;;;;9.10;100165.00;;;;10596642;27;20196;-77
2022/04/22 03:03:58;;;;;;;12.30;9.63;;;;;9.00;100157.00;;;;10518753;28;20208;-78
2022/04/22 03:09:00;;;;;;;14.20;11.03;;;;;9.00;100161.00;;;;10511017;28;20284;-78
2022/04/22 03:14:03;;;;;;;14.93;11.73;;;;;8.90;100161.00;;;;10510991;28;20242;-77
2022/04/22 03:19:05;;;;;;;14.00;11.40;;;;;8.80;100151.00;;;;10500155;28;20193;-78
2022/04/22 03:24:07;;;;;;;18.03;11.33;;;;;8.70;100166.00;;;;10532602;27;20215;-78
2022/04/22 03:29:09;;;;;;;16.97;12.60;;;;;8.70;100161.00;;;;10533804;28;20196;-78
2022/04/22 03:34:10;;;;;;;16.23;12.20;;;;;8.60;100155.00;;;;10511917;28;20192;-78
2022/04/22 03:39:12;;;;;;;19.20;13.23;;;;;8.50;100156.00;;;;10513848;28;20606;-77
2022/04/22 03:44:15;;;;;;;16.47;13.97;;;;;8.40;100147.00;;;;10545817;28;20254;-78
2022/04/22 03:49:17;;;;;;;17.70;15.40;;;;;8.40;100150.00;;;;10536622;28;20200;-78
2022/04/22 03:54:22;;;;;;;22.87;15.87;;;;;8.30;100149.00;;;;10568218;27;20196;-77
2022/04/22 03:59:24;;;;;;;22.50;14.90;;;;;8.30;100147.00;;;;10561455;27;20738;-78
2022/04/22 04:04:26;;;;;;;26.67;17.43;;;;;8.20;100150.00;;;;10577587;27;20624;-78
2022/04/22 04:25:29;;;;;;;25.47;17.37;;;;;8.10;100158.00;;;;10509345;28;20209;-77
2022/04/22 04:30:32;;;;;;;23.30;17.90;;;;;8.00;100155.00;;;;10493575;28;20263;-78
2022/04/22 04:35:35;;;;;;;23.90;18.97;;;;;8.10;100159.00;;;;10509467;28;20342;-79
2022/04/22 04:40:36;;;;;;;24.70;18.20;;;;;8.10;100160.00;;;;10516126;27;20555;-78
2022/04/22 04:45:38;;;;;;;26.20;19.40;;;;;8.00;100156.00;;;;10530447;28;20209;-78
2022/04/22 04:50:40;;;;;;;22.63;19.03;;;;;8.00;100166.00;;;;10505696;28;20250;-78
2022/04/22 04:55:42;;;;;;;28.57;19.40;;;;;8.10;100157.00;;;;10548598;28;20209;-78
2022/04/22 05:00:45;;;;;;;26.93;20.53;;;;;8.20;100153.00;;;;10524756;28;20267;-78
2022/04/22 05:05:47;;;;;;;24.53;20.17;;;;;8.40;100165.00;;;;10474663;28;20209;-78
2022/04/22 05:10:48;;;;;;;24.07;19.43;;;;;8.50;100155.00;;;;10525475;28;20391;-78
2022/04/22 05:15:53;;;;;;;23.90;20.70;;;;;8.60;100154.00;;;;10563135;28;20192;-77
2022/04/22 05:20:55;;;;;;;28.03;20.77;;;;;8.90;100158.00;;;;10548434;28;20291;-77
2022/04/22 05:25:57;;;;;;;23.40;19.83;;;;;9.30;100147.00;;;;10572522;27;20214;-78
2022/04/22 05:36:19;;;;;;;23.83;17.53;;;;;10.00;100161.00;;;;10518906;28;20204;-78
2022/04/22 05:41:21;;;;;;;24.90;17.90;;;;;10.00;100157.00;;;;10543383;28;20216;-77
2022/04/22 05:46:23;;;;;;;25.53;19.67;;;;;10.30;100164.00;;;;10501687;28;20228;-78
2022/04/22 05:51:24;;;;;;;23.97;18.10;;;;;10.50;100163.00;;;;10538187;28;20604;-77
2022/04/22 05:56:26;;;;;;;19.90;16.80;;;;;10.80;100165.00;;;;10547965;28;20663;-78
2022/04/22 06:01:28;;;;;;;21.23;17.33;;;;;11.10;100166.00;;;;10546225;28;20207;-78
2022/04/22 06:06:30;;;;;;;22.30;16.60;;;;;11.40;100171.00;;;;10529118;28;20287;-79
2022/04/22 06:11:32;;;;;;;18.83;15.63;;;;;11.90;100172.00;;;;10529915;28;20792;-78
2022/04/22 06:16:35;;;;;;;16.83;15.00;;;;;12.40;100168.00;;;;10527002;28;20224;-79
2022/04/22 06:21:37;;;;;;;19.70;14.77;;;;;12.60;100158.00;;;;10506493;28;20601;-79
2022/04/22 06:26:39;;;;;;;18.13;13.80;;;;;12.90;100153.00;;;;10523294;28;20334;-79
2022/04/22 06:31:41;;;;;;;16.60;13.37;;;;;13.10;100147.00;;;;10535088;28;20189;-79
2022/04/22 06:36:43;;;;;;;18.20;13.60;;;;;13.20;100143.00;;;;10527669;28;20220;-79
2022/04/22 06:47:07;;;;;;;20.37;13.10;;;;;13.60;100156.00;;;;10546458;28;20824;-79
2022/04/22 06:52:10;;;;;;;21.13;14.37;;;;;13.80;100149.00;;;;10554282;28;20192;-80
2022/04/22 06:57:12;;;;;;;15.60;13.93;;;;;13.90;100159.00;;;;10553941;28;20188;-80
2022/04/22 07:02:14;;;;;;;19.07;14.10;;;;;14.30;100158.00;;;;10521863;28;20200;-80
2022/04/22 07:07:17;;;;;;;19.37;13.97;;;;;14.60;100155.00;;;;10523304;28;20210;-80
2022/04/22 07:12:26;;;;;;;14.83;13.33;;;;;14.90;100153.00;;;;10571439;28;20176;-80
2022/04/22 07:17:36;;;;;;;14.33;12.57;;;;;15.30;100150.00;;;;10572586;28;20196;-79
2022/04/22 07:22:40;;;;;;;18.57;13.50;;;;;15.50;100146.00;;;;10538717;28;20192;-80
2022/04/22 07:27:46;;;;;;;15.30;12.80;;;;;15.90;100146.00;;;;10555332;28;20215;-79
2022/04/22 07:32:49;;;;;;;16.67;12.70;;;;;16.10;100144.00;;;;10537885;28;20245;-79
2022/04/22 07:37:52;;;;;;;19.03;13.80;;;;;16.20;100147.00;;;;10569325;28;20258;-79
2022/04/22 07:48:15;;;;;;;17.43;14.27;;;;;16.40;100145.00;;;;10510038;28;20204;-78
2022/04/22 07:53:18;;;;;;;17.10;14.80;;;;;16.20;100145.00;;;;10523951;27;20203;-79
2022/04/22 07:58:19;;;;;;;20.77;15.37;;;;;16.40;100136.00;;;;10610728;27;20183;-79
2022/04/22 08:03:21;;;;;;;19.77;14.90;;;;;16.60;100133.00;;;;10537347;27;20193;-81
2022/04/22 08:08:28;;;;;;;19.23;15.57;;;;;16.90;100128.00;;;;10534777;28;20196;-81
2022/04/22 08:13:31;;;;;;;17.37;14.27;;;;;17.30;100130.00;;;;10551271;28;20732;-80
2022/04/22 08:18:33;;;;;;;17.83;14.57;;;;;17.30;100137.00;;;;10567647;28;20218;-79
2022/04/22 08:23:35;;;;;;;20.53;14.60;;;;;17.30;100113.00;;;;10524721;28;20217;-80
2022/04/22 08:28:36;;;;;;;20.07;14.87;;;;;16.90;100109.00;;;;10509115;28;20200;-82
2022/04/22 08:33:38;;;;;;;19.40;15.40;;;;;17.40;100117.00;;;;10508096;28;20193;-80
2022/04/22 08:38:41;;;;;;;15.35;13.38;;;;;17.60;100108.00;;;;10507616;28;20189;-79
2022/04/22 08:43:43;;;;;;;18.33;15.32;;;;;18.90;100107.00;;;;10542206;28;20741;-80
2022/04/22 08:54:09;;;;;;;20.60;15.20;;;;;20.70;100098.00;;;;10528026;28;20191;-79
2022/04/22 08:59:11;;;;;;;17.90;13.95;;;;;21.00;100105.00;;;;10542713;28;20647;-81
2022/04/22 09:04:13;;;;;;;17.88;15.13;;;;;20.50;100101.00;;;;10535440;28;20303;-80
2022/04/22 09:09:19;;;;;;;16.67;13.60;;;;;20.90;100094.00;;;;10513510;28;20193;-77
2022/04/22 09:14:23;;;;;;;14.00;12.57;;;;;21.70;100092.00;;;;10531743;28;20197;-79
2022/04/22 09:19:25;;;;;;;16.13;14.52;;;;;23.00;100081.00;;;;10582927;28;20686;-80
2022/04/22 09:24:27;;;;;;;15.88;13.95;;;;;22.80;100076.00;;;;10548288;27;20266;-79
2022/04/22 09:29:29;;;;;;;13.45;12.05;;;;;22.90;100077.00;;;;10581700;27;20663;-79
2022/04/22 09:34:39;;;;;;;14.95;12.32;;;;;21.20;100069.00;;;;10537484;28;20242;-79
2022/04/22 09:45:05;;;;;;;16.10;11.32;;;;;18.80;100059.00;;;;10538154;28;20273;-79
2022/04/22 09:50:12;;;;;;;16.20;10.60;;;;;18.40;100052.00;;;;10539694;28;20200;-79
2022/04/22 09:55:15;;;;;;;11.57;9.27;;;;;18.60;100051.00;;;;10523433;28;20196;-79
2022/04/22 10:00:18;;;;;;;11.80;8.98;;;;;18.60;100044.00;;;;10500532;28;20233;-79
2022/04/22 10:05:22;;;;;;;12.00;8.98;;;;;18.30;100043.00;;;;10514939;28;20265;-80
2022/04/22 10:10:35;;;;;;;12.32;8.18;;;;;18.20;100043.00;;;;10547467;28;20196;-79
2022/04/22 10:15:39;;;;;;;9.55;8.52;;;;;18.40;100047.00;;;;10547585;28;20304;-79
2022/04/22 10:20:43;;;;;;;12.23;8.25;;;;;18.50;100041.00;;;;10535066;27;20253;-79
2022/04/22 10:25:45;;;;;;;8.43;7.40;;;;;18.40;100023.00;;;;10579889;27;20843;-79
2022/04/22 10:30:49;;;;;;;10.77;8.65;;;;;17.70;100023.00;;;;10633175;27;20187;-79
2022/04/22 10:35:58;;;;;;;10.03;8.67;;;;;16.80;100030.00;;;;10598529;27;20184;-80
2022/04/22 10:41:01;;;;;;;11.53;8.27;;;;;16.20;100026.00;;;;10597209;27;20208;-79
2022/04/22 10:51:24;;;;;;;12.27;10.13;;;;;16.00;100034.00;;;;10520573;28;20192;-79
2022/04/22 10:56:25;;;;;;;14.90;11.43;;;;;16.60;100026.00;;;;10554964;28;20199;-80
2022/04/22 11:01:31;;;;;;;13.33;11.20;;;;;17.20;100022.00;;;;10555352;28;20219;-79
2022/04/22 11:06:34;;;;;;;12.00;10.63;;;;;17.30;100019.00;;;;10579674;27;20294;-80
2022/04/22 11:11:42;;;;;;;13.30;11.90;;;;;17.10;100023.00;;;;10580375;27;20198;-79
2022/04/22 11:16:44;;;;;;;15.27;12.63;;;;;16.70;100027.00;;;;10596354;27;20192;-79
2022/04/22 11:21:50;;;;;;;13.33;11.90;;;;;16.90;100019.00;;;;10579069;27;20294;-79
2022/04/22 11:27:02;;;;;;;12.60;10.67;;;;;17.40;100021.00;;;;10513628;28;20680;-81
2022/04/22 11:32:21;;;;;;;12.50;11.20;;;;;17.70;100027.00;;;;10512391;28;20189;-78
2022/04/22 11:37:23;;;;;;;12.30;10.57;;;;;17.90;100015.00;;;;10525424;28;20216;-80
2022/04/22 11:42:25;;;;;;;12.93;11.00;;;;;18.70;100006.00;;;;10568463;27;20212;-79
2022/04/22 11:47:28;;;;;;;14.90;10.23;;;;;19.90;99996.00;;;;10619776;27;20216;-79
2022/04/22 11:52:30;;;;;;;11.52;9.98;;;;;20.40;99996.00;;;;10553078;28;20192;-79
2022/04/22 11:57:38;;;;;;;11.82;9.35;;;;;21.30;99994.00;;;;10569963;28;20607;-80
2022/04/22 12:08:15;;;;;;;13.02;8.68;;;;;22.40;99982.00;;;;10552059;28;20250;-80
2022/04/22 12:13:18;;;;;;;9.98;9.07;;;;;23.20;99968.00;;;;10551765;28;20196;-80
2022/04/22 12:18:29;;;;;;;10.85;8.98;;;;;21.90;99971.00;;;;10535886;28;20192;-79
2022/04/22 12:23:34;;;;;;;9.65;8.65;;;;;22.10;99951.00;;;;10593766;27;20191;-79
2022/04/22 12:28:54;;;;;;;10.38;9.25;;;;;21.60;99956.00;;;;10576821;27;20208;-79
2022/04/22 12:34:10;;;;;;;10.95;8.00;;;;;21.40;99958.00;;;;10542776;28;20682;-79
2022/04/22 12:39:41;;;;;;;8.98;8.07;;;;;22.20;99941.00;;;;10550867;28;20207;-79
2022/04/22 12:52:08;;;;;;;9.57;7.65;;;;;21.50;99945.00;;;;10532715;28;20223;-79
2022/04/22 12:55:31;;;;;;;9.77;8.77;;;;;20.10;99948.00;;;;10532363;28;20724;-79
2022/04/22 13:00:33;;;;;;;11.40;8.75;;;;;20.80;99939.00;;;;10542254;28;20230;-80
2022/04/22 13:05:40;;;;;;;10.85;9.75;;;;;21.50;99934.00;;;;10506208;28;20204;-79
2022/04/22 13:10:42;;;;;;;9.27;8.05;;;;;21.80;99930.00;;;;10523945;28;20189;-79
2022/04/22 13:15:45;;;;;;;9.30;8.40;;;;;22.30;99924.00;;;;10473393;28;20690;-79
2022/04/22 13:20:47;;;;;;;9.07;8.18;;;;;23.40;99924.00;;;;10494461;27;20189;-79
2022/04/22 13:25:49;;;;;;;9.98;9.07;;;;;22.80;99916.00;;;;10585966;27;20195;-80
2022/04/22 13:30:51;;;;;;;11.02;9.25;;;;;22.00;99907.00;;;;10490099;28;20220;-79
2022/04/22 13:35:52;;;;;;;10.07;8.27;;;;;23.20;99905.00;;;;10507246;28;20575;-80
2022/04/22 13:40:54;;;;;;;13.90;9.60;;;;;23.30;99893.00;;;;10506107;28;20220;-80
2022/04/22 13:56:44;;;;;;;11.15;8.32;;;;;23.10;99896.00;;;;10596592;27;20192;-78
2022/04/22 14:01:46;;;;;;;9.45;8.55;;;;;20.60;99893.00;;;;10573349;27;20195;-79
2022/04/22 14:06:48;;;;;;;10.10;9.10;;;;;20.10;99886.00;;;;10557134;28;20208;-79
2022/04/22 14:11:50;;;;;;;10.30;9.25;;;;;21.70;99881.00;;;;10522921;28;20202;-79
2022/04/22 14:16:52;;;;;;;9.25;8.35;;;;;20.30;99875.00;;;;10538125;28;20225;-79
2022/04/22 14:21:54;;;;;;;9.35;8.45;;;;;20.20;99868.00;;;;10549626;28;20223;-78
2022/04/22 14:27:03;;;;;;;9.57;8.43;;;;;23.50;99861.00;;;;10555613;28;20216;-79
2022/04/22 14:32:09;;;;;;;9.90;8.82;;;;;20.90;99847.00;;;;10539510;28;20199;-79
2022/04/22 14:37:12;;;;;;;12.68;8.27;;;;;20.20;99846.00;;;;10539348;28;20408;-79
2022/04/22 14:42:14;;;;;;;9.23;8.32;;;;;19.70;99850.00;;;;10539390;27;20211;-81
2022/04/22 14:47:18;;;;;;;10.20;8.07;;;;;19.40;99845.00;;;;10538927;27;20212;-79
2022/04/22 14:52:20;;;;;;;11.45;8.73;;;;;26.50;99834.00;;;;10544414;27;20219;-78
2022/04/22 14:57:22;;;;;;;10.90;9.73;;;;;23.00;99842.00;;;;10612528;27;20176;-79
2022/04/22 15:02:24;;;;;;;11.57;9.30;;;;;21.20;99834.00;;;;10563746;27;20196;-79
2022/04/22 15:07:29;;;;;;;8.73;7.65;;;;;20.50;99842.00;;;;10552066;28;20702;-79
2022/04/22 15:12:32;;;;;;;9.00;8.13;;;;;21.00;99835.00;;;;10506210;28;20205;-79
2022/04/22 15:28:19;;;;;;;8.60;7.72;;;;;22.00;99829.00;;;;10505542;27;20228;-78
2022/04/22 15:33:21;;;;;;;9.93;7.38;;;;;21.80;99823.00;;;;10517362;27;20566;-78
2022/04/22 15:38:23;;;;;;;9.07;6.82;;;;;20.60;99827.00;;;;10500373;27;20200;-79
2022/04/22 15:43:25;;;;;;;8.88;7.90;;;;;19.90;99823.00;;;;10536532;28;20188;-78
2022/04/22 15:48:28;;;;;;;8.40;7.15;;;;;20.10;99817.00;;;;10512800;27;20220;-79
2022/04/22 15:53:35;;;;;;;8.55;7.50;;;;;20.80;99808.00;;;;10586223;27;20196;-78
2022/04/22 15:58:38;;;;;;;10.35;8.57;;;;;20.90;99813.00;;;;10547139;28;20279;-78
2022/04/22 16:03:47;;;;;;;8.88;7.47;;;;;20.60;99811.00;;;;10530820;27;20200;-79
2022/04/22 16:08:51;;;;;;;11.32;7.80;;;;;19.60;99812.00;;;;10530083;28;20204;-78
2022/04/22 16:19:14;;;;;;;12.88;9.95;;;;;19.40;99807.00;;;;10564250;28;20854;-79
2022/04/22 16:24:17;;;;;;;11.30;10.10;;;;;19.50;99818.00;;;;10513541;28;20196;-79
2022/04/22 16:29:19;;;;;;;15.38;10.23;;;;;19.30;99822.00;;;;10509660;28;20254;-78
2022/04/22 16:34:21;;;;;;;14.80;10.10;;;;;18.70;99818.00;;;;10562375;27;20217;-80
2022/04/22 16:39:25;;;;;;;11.45;9.75;;;;;18.10;99828.00;;;;10520116;27;20200;-79
2022/04/22 16:44:27;;;;;;;12.45;9.43;;;;;18.30;99824.00;;;;10548450;28;20201;-79
2022/04/22 16:49:29;;;;;;;14.00;10.35;;;;;18.30;99822.00;;;;10527907;27;20781;-79
2022/04/22 16:54:31;;;;;;;13.60;10.98;;;;;18.00;99821.00;;;;10539610;28;20197;-79
2022/04/22 16:59:33;;;;;;;12.37;10.80;;;;;17.60;99812.00;;;;10496999;28;20204;-80
2022/04/22 17:04:35;;;;;;;11.93;10.63;;;;;17.30;99819.00;;;;10509463;28;20200;-78
2022/04/22 17:09:38;;;;;;;14.60;10.87;;;;;17.10;99811.00;;;;10518696;27;20192;-79
2022/04/22 17:25:22;;;;;;;13.20;11.83;;;;;16.70;99830.00;;;;10547567;28;20204;-79
2022/04/22 17:30:24;;;;;;;12.90;11.70;;;;;16.60;99832.00;;;;10517865;28;20624;-78
2022/04/22 17:35:28;;;;;;;13.63;12.00;;;;;16.50;99837.00;;;;10507173;28;20291;-79
2022/04/22 17:40:29;;;;;;;14.73;12.80;;;;;16.30;99834.00;;;;10532571;28;20215;-79
2022/04/22 17:45:31;;;;;;;14.33;12.67;;;;;16.20;99843.00;;;;10489955;28;20226;-79
2022/04/22 17:50:33;;;;;;;13.47;12.10;;;;;16.00;99833.00;;;;10493793;28;20261;-79
2022/04/22 17:55:35;;;;;;;13.40;12.00;;;;;15.80;99850.00;;;;10503224;28;20192;-78
2022/04/22 18:00:38;;;;;;;13.10;11.73;;;;;15.70;99845.00;;;;10499511;28;20249;-79
2022/04/22 18:05:40;;;;;;;12.53;11.23;;;;;15.70;99841.00;;;;10510120;28;20306;-80
2022/04/22 18:10:42;;;;;;;19.10;12.43;;;;;15.70;99847.00;;;;10527910;28;20203;-81
2022/04/22 18:21:05;;;;;;;12.67;11.37;;;;;15.40;99857.00;;;;10541236;28;20192;-80
2022/04/22 18:26:08;;;;;;;13.53;11.63;;;;;15.30;99861.00;;;;10491872;28;20211;-80
2022/04/22 18:31:12;;;;;;;12.37;11.07;;;;;15.10;99858.00;;;;10523122;28;20203;-79
2022/04/22 18:36:14;;;;;;;12.57;10.80;;;;;15.00;99854.00;;;;10507913;28;20548;-79
2022/04/22 18:41:22;;;;;;;13.43;11.10;;;;;14.80;99860.00;;;;10524325;28;20278;-79
2022/04/22 18:46:27;;;;;;;11.97;10.60;;;;;14.50;99857.00;;;;10515004;28;20196;-79
2022/04/22 18:51:29;;;;;;;16.83;11.20;;;;;14.30;99860.00;;;;10520297;28;20184;-79
2022/04/22 18:56:33;;;;;;;11.73;10.53;;;;;14.20;99855.00;;;;10499498;28;20798;-79
2022/04/22 19:01:36;;;;;;;14.30;10.63;;;;;14.10;99864.00;;;;10525380;28;20199;-79
2022/04/22 19:06:38;;;;;;;13.43;10.57;;;;;14.00;99863.00;;;;10519638;28;20227;-80
2022/04/22 19:11:40;;;;;;;11.33;10.23;;;;;13.90;99861.00;;;;10538865;28;20536;-80
2022/04/22 19:16:43;;;;;;;12.73;11.40;;;;;13.80;99862.00;;;;10531080;28;20655;-79
2022/04/22 19:21:45;;;;;;;11.63;10.20;;;;;13.70;99865.00;;;;10555478;27;20195;-79
2022/04/22 19:26:46;;;;;;;12.27;9.57;;;;;13.60;99859.00;;;;10519447;28;20328;-79
2022/04/22 19:31:48;;;;;;;11.23;9.07;;;;;13.60;99858.00;;;;10535092;28;20200;-79
2022/04/22 19:42:11;;;;;;;13.30;9.70;;;;;13.40;99854.00;;;;10536229;28;20222;-80
2022/04/22 19:47:13;;;;;;;9.97;8.90;;;;;13.30;99857.00;;;;10533847;28;20204;-79
2022/04/22 19:52:17;;;;;;;11.87;9.23;;;;;13.30;99852.00;;;;10550816;28;20203;-79
2022/04/22 19:57:19;;;;;;;12.17;9.47;;;;;13.20;99848.00;;;;10515535;28;20201;-79
2022/04/22 20:02:20;;;;;;;12.87;9.90;;;;;13.10;99849.00;;;;10510905;28;20193;-79
2022/04/22 20:07:23;;;;;;;14.37;9.57;;;;;13.00;99837.00;;;;10549572;27;20610;-79
2022/04/22 20:12:27;;;;;;;10.47;9.33;;;;;13.00;99831.00;;;;10544576;28;20612;-79
2022/04/22 20:17:29;;;;;;;16.07;9.10;;;;;12.90;99829.00;;;;10550395;28;20188;-79
2022/04/22 20:22:31;;;;;;;12.77;9.57;;;;;12.80;99837.00;;;;10575598;27;20204;-79
2022/04/22 20:27:33;;;;;;;12.40;9.70;;;;;12.70;99841.00;;;;10534700;28;20200;-80
2022/04/22 20:32:48;;;;;;;11.13;9.80;;;;;12.60;99835.00;;;;10533610;28;20196;-80
2022/04/22 20:43:11;;;;;;;13.57;10.73;;;;;12.40;99843.00;;;;10520531;28;20241;-80
2022/04/22 20:48:18;;;;;;;13.30;11.63;;;;;12.30;99838.00;;;;10522190;28;20266;-80
2022/04/22 20:58:46;;;;;;;13.23;11.70;;;;;12.00;99841.00;;;;10532222;28;20199;-80
2022/04/22 21:03:48;;;;;;;14.03;12.10;;;;;11.90;99839.00;;;;10530881;28;20202;-79
2022/04/22 21:08:50;;;;;;;14.13;11.90;;;;;11.80;99838.00;;;;10515788;28;20204;-79
2022/04/22 21:13:52;;;;;;;15.97;13.67;;;;;11.70;99844.00;;;;10516254;28;20698;-80
2022/04/22 21:18:54;;;;;;;17.93;13.17;;;;;11.70;99846.00;;;;10520300;27;20193;-80
2022/04/22 21:23:56;;;;;;;14.97;12.97;;;;;11.70;99840.00;;;;10540437;28;20219;-79
2022/04/22 21:28:58;;;;;;;18.00;13.57;;;;;11.70;99849.00;;;;10506278;28;20292;-80
2022/04/22 21:34:00;;;;;;;17.07;13.93;;;;;11.70;99843.00;;;;10539522;27;20187;-80
2022/04/22 21:39:02;;;;;;;17.27;13.50;;;;;11.70;99841.00;;;;10527212;28;20231;-79
2022/04/22 21:44:04;;;;;;;17.83;14.50;;;;;11.70;99846.00;;;;10535256;27;20283;-80
2022/04/22 21:49:06;;;;;;;27.23;14.57;;;;;11.70;99851.00;;;;10536321;28;20242;-79
2022/04/22 21:54:08;;;;;;;21.87;14.70;;;;;11.60;99847.00;;;;10555783;27;20226;-79
2022/04/22 21:59:12;;;;;;;17.90;15.10;;;;;11.60;99856.00;;;;10503471;28;20197;-80
2022/04/22 22:04:14;;;;;;;20.53;15.37;;;;;11.60;99847.00;;;;10504084;28;20195;-81
2022/04/22 22:09:17;;;;;;;20.30;15.60;;;;;11.60;99842.00;;;;10527654;28;20278;-80
2022/04/22 22:14:19;;;;;;;20.73;15.53;;;;;11.60;99842.00;;;;10513275;28;20325;-80
2022/04/22 22:19:21;;;;;;;18.87;16.30;;;;;11.50;99841.00;;;;10572090;28;20539;-80
2022/04/22 22:24:23;;;;;;;20.13;15.77;;;;;11.50;99845.00;;;;10544544;27;20203;-80
2022/04/22 22:29:25;;;;;;;17.83;15.10;;;;;11.50;99840.00;;;;10521544;28;20237;-80
2022/04/22 22:34:26;;;;;;;20.07;15.77;;;;;11.50;99841.00;;;;10516158;28;20230;-80
2022/04/22 22:39:28;;;;;;;18.90;15.03;;;;;11.40;99836.00;;;;10522309;28;20258;-80
2022/04/22 22:44:31;;;;;;;17.30;14.97;;;;;11.40;99836.00;;;;10538912;28;20188;-80
2022/04/22 22:49:33;;;;;;;17.10;15.07;;;;;11.30;99838.00;;;;10522324;28;20220;-80
2022/04/22 22:54:35;;;;;;;21.30;15.50;;;;;11.30;99834.00;;;;10534664;27;20196;-81
2022/04/22 22:59:37;;;;;;;18.93;15.70;;;;;11.20;99846.00;;;;10540817;28;20238;-80
2022/04/22 23:04:39;;;;;;;18.90;16.17;;;;;11.10;99839.00;;;;10523632;28;20257;-80
2022/04/22 23:09:41;;;;;;;21.90;15.77;;;;;11.10;99842.00;;;;10511212;28;20219;-80
2022/04/22 23:14:45;;;;;;;19.10;14.47;;;;;11.00;99841.00;;;;10538920;28;20192;-80
2022/04/22 23:19:47;;;;;;;21.70;16.30;;;;;10.90;99844.00;;;;10556577;28;20188;-81
2022/04/22 23:24:49;;;;;;;17.90;14.87;;;;;10.80;99836.00;;;;10566129;27;20602;-80
2022/04/22 23:29:51;;;;;;;22.73;16.27;;;;;10.70;99832.00;;;;10522750;28;20200;-80
2022/04/22 23:34:53;;;;;;;24.00;16.37;;;;;10.60;99831.00;;;;10505489;28;20235;-80
2022/04/22 23:39:55;;;;;;;19.87;16.90;;;;;10.50;99828.00;;;;10522250;28;20212;-80
2022/04/22 23:44:57;;;;;;;18.60;16.07;;;;;10.50;99830.00;;;;10539021;28;20601;-79
2022/04/22 23:50:00;;;;;;;21.47;16.23;;;;;10.40;99830.00;;;;10539115;28;20220;-79
2022/04/22 23:55:03;;;;;;;19.67;16.57;;;;;10.30;99817.00;;;;10538880;28;20196;-78
